Poynor, Texas
Current Conditions -  °F | °C
As of 7:35 AM on Thursday 23 Oct 2014 (Local Time) from KF44 Reporting Station
Broken Clouds Broken Clouds  
Wind Chill: 59°   Ceiling: 12000
Heat Index: 59°   Visibility: 10mi
Dew Point: 52°   Wind: 0mph
Humidity: 77%   Direction: NA
Pressure: 30.13"   Gusts: NA
Location:  32.07°N, 95.6°W
Report Text: KF44 231235Z AUTO 00000KT 10SM BKN120 15/11 A3013 RMK AO2
Loading
Personal Weather Stations






























Interactive Weather Map New forecast layout! Learn more

10-Day Weather Forecast

Advertisements
Track Severe Weather on mobile